Yale, IL (62481)

1:22 PM CST on March 05, 2015 (GMT -0600)
APRSWXNET Casey IL US | Change Station
CLOSE
Current Station
Personal Weather Station
Location: Casey, IL
Elevation: 652 ft
Nearby Weather Stations

Elev 652 ft 39.30 °N, 87.98 °W | Updated 35 minutes ago

Clear
Clear
16 °F
Feels Like 3 °F
N
11
Wind Variable Wind from NNW
Gusts 18.0 mph

Today
High -- | Low -- °F
--% Chance of Precip.
Yesterday
High -- | Low -- °F
Precip. -- in
6:19 AM 5:48 PM
Full, 100% visible
Pressure 30.52 in
Visibility 10.0 miles
Clouds Clear
Windchill 3 °F
Dew Point 5 °F
Humidity 62%
Rainfall in
Snow Depth Not available.
UV 5 out of 12
Pollen .50 out of 12
Air Quality Not available.
Flu Activity Not available.
METAR KRSV 051915Z AUTO 33011KT 10SM CLR M07/M15 A3052 RMK AO2 T10671147

More Conditions Fewer Conditions

Pressure 30.52 in
Visibility 10.0 miles
Clouds Clear
Windchill 3 °F
Dew Point 5 °F
Humidity 62%
Rainfall in
Snow Depth Not available.
UV 5 out of 12
Pollen .50 out of 12
Air Quality Not available.
Flu Activity Not available.
METAR KRSV 051915Z AUTO 33011KT 10SM CLR M07/M15 A3052 RMK AO2 T10671147

More Conditions Fewer Conditions

10-Day Weather Forecast

Almanac

Astronomy

Mar. 05, 2015 Rise Set
Actual Time
Civil Twilight
Nautical Twilight
Astronomical Twilight
Moon
Length of Visible Light
Length of Day
Tomorrow will be .
, % of the Moon is Illuminated

Today's Extremes

State Highs State Lows

Community

WunderPhotos

Upload Photos

1,802,915 photos uploaded!

WunderBlogs® & News

Nearby

Air Quality

  Air Quality AQ Index Pollutant
Not available.

Snow Depth

Station Depth Elevation

Earthquake Activity

City Distance Mag. Time & Date
Minimum magnitude displayed is 2.5.

Coastal Water Temperatures

Place Temperature

Nearby Weather Stations